<?xml version="1.0" encoding="UTF-8" standalone="no" ?>
<gpx xmlns="http://www.topografix.com/GPX/1/1" xmlns:xsi="http://www.w3.org/2001/XMLSchema-instance" xsi:schemaLocation="http://www.topografix.com/GPX/1/1 http://www.topografix.com/GPX/1/1/gpx.xsd" version="1.1" creator="VisuGPX - https://www.visugpx.com">
  <metadata>
    <name>Torfou_Bataille_12-21km</name>
    <desc><![CDATA[gnerando idor:8208323_8287903_8309224]]></desc>
  </metadata>
  <trk>
    <name><![CDATA[Torfou_Bataille_12km-8287903]]></name>
    <extensions>
      <line xmlns="http://www.topografix.com/GPX/gpx_style/0/2">
        <color>FF0000</color>
        <width>4</width>
      </line>
    </extensions>
    <trkseg>
      <trkpt lat="47.0374" lon="-1.11483">
        <ele>104</ele>
        <time>2023-11-14T05:29:07Z</time>
      </trkpt>
      <trkpt lat="47.03839" lon="-1.11871">
        <ele>94</ele>
        <time>2023-11-14T05:35:24Z</time>
      </trkpt>
      <trkpt lat="47.03798" lon="-1.12078">
        <ele>90</ele>
        <time>2023-11-14T05:38:40Z</time>
      </trkpt>
      <trkpt lat="47.03603" lon="-1.12086">
        <ele>100</ele>
        <time>2023-11-14T05:43:00Z</time>
      </trkpt>
      <trkpt lat="47.03533" lon="-1.12155">
        <ele>100</ele>
        <time>2023-11-14T05:44:53Z</time>
      </trkpt>
      <trkpt lat="47.03234" lon="-1.12404">
        <ele>93</ele>
        <time>2023-11-14T05:52:31Z</time>
      </trkpt>
      <trkpt lat="47.03117" lon="-1.12867">
        <ele>90</ele>
        <time>2023-11-14T06:00:01Z</time>
      </trkpt>
      <trkpt lat="47.02848" lon="-1.13597">
        <ele>79</ele>
        <time>2023-11-14T06:12:35Z</time>
      </trkpt>
      <trkpt lat="47.02807" lon="-1.13666">
        <ele>73</ele>
        <time>2023-11-14T06:13:59Z</time>
      </trkpt>
      <trkpt lat="47.02726" lon="-1.13632">
        <ele>74</ele>
        <time>2023-11-14T06:15:51Z</time>
      </trkpt>
      <trkpt lat="47.02593" lon="-1.13748">
        <ele>51</ele>
        <time>2023-11-14T06:19:18Z</time>
      </trkpt>
      <trkpt lat="47.02598" lon="-1.13806">
        <ele>50</ele>
        <time>2023-11-14T06:20:11Z</time>
      </trkpt>
      <trkpt lat="47.0249" lon="-1.13567">
        <ele>51</ele>
        <time>2023-11-14T06:24:32Z</time>
      </trkpt>
      <trkpt lat="47.0243" lon="-1.13416">
        <ele>50</ele>
        <time>2023-11-14T06:27:11Z</time>
      </trkpt>
      <trkpt lat="47.02401" lon="-1.13322">
        <ele>54</ele>
        <time>2023-11-14T06:28:45Z</time>
      </trkpt>
      <trkpt lat="47.02322" lon="-1.13156">
        <ele>52</ele>
        <time>2023-11-14T06:31:49Z</time>
      </trkpt>
      <trkpt lat="47.02396" lon="-1.12961">
        <ele>52</ele>
        <time>2023-11-14T06:35:12Z</time>
      </trkpt>
      <trkpt lat="47.02381" lon="-1.12759">
        <ele>50</ele>
        <time>2023-11-14T06:38:17Z</time>
      </trkpt>
      <trkpt lat="47.02253" lon="-1.12636">
        <ele>50</ele>
        <time>2023-11-14T06:41:41Z</time>
      </trkpt>
      <trkpt lat="47.02199" lon="-1.12405">
        <ele>52</ele>
        <time>2023-11-14T06:45:23Z</time>
      </trkpt>
      <trkpt lat="47.02248" lon="-1.12167">
        <ele>63</ele>
        <time>2023-11-14T06:49:09Z</time>
      </trkpt>
      <trkpt lat="47.0217" lon="-1.11763">
        <ele>61</ele>
        <time>2023-11-14T06:55:31Z</time>
      </trkpt>
      <trkpt lat="47.01983" lon="-1.11575">
        <ele>51</ele>
        <time>2023-11-14T07:00:34Z</time>
      </trkpt>
      <trkpt lat="47.01855" lon="-1.11323">
        <ele>53</ele>
        <time>2023-11-14T07:05:19Z</time>
      </trkpt>
      <trkpt lat="47.01742" lon="-1.11258">
        <ele>51</ele>
        <time>2023-11-14T07:08:01Z</time>
      </trkpt>
      <trkpt lat="47.01648" lon="-1.11121">
        <ele>52</ele>
        <time>2023-11-14T07:10:58Z</time>
      </trkpt>
      <trkpt lat="47.01654" lon="-1.11038">
        <ele>56</ele>
        <time>2023-11-14T07:12:14Z</time>
      </trkpt>
      <trkpt lat="47.01717" lon="-1.1099">
        <ele>65</ele>
        <time>2023-11-14T07:13:49Z</time>
      </trkpt>
      <trkpt lat="47.01857" lon="-1.10984">
        <ele>80</ele>
        <time>2023-11-14T07:16:56Z</time>
      </trkpt>
      <trkpt lat="47.01961" lon="-1.11067">
        <ele>84</ele>
        <time>2023-11-14T07:19:34Z</time>
      </trkpt>
      <trkpt lat="47.02189" lon="-1.11074">
        <ele>90</ele>
        <time>2023-11-14T07:24:38Z</time>
      </trkpt>
      <trkpt lat="47.0231" lon="-1.10951">
        <ele>89</ele>
        <time>2023-11-14T07:27:55Z</time>
      </trkpt>
      <trkpt lat="47.02384" lon="-1.11002">
        <ele>85</ele>
        <time>2023-11-14T07:29:44Z</time>
      </trkpt>
      <trkpt lat="47.0335" lon="-1.10572">
        <ele>105</ele>
        <time>2023-11-14T07:52:11Z</time>
      </trkpt>
      <trkpt lat="47.03459" lon="-1.10478">
        <ele>110</ele>
        <time>2023-11-14T07:55:00Z</time>
      </trkpt>
      <trkpt lat="47.03901" lon="-1.10356">
        <ele>109</ele>
        <time>2023-11-14T08:05:00Z</time>
      </trkpt>
      <trkpt lat="47.04457" lon="-1.10103">
        <ele>104</ele>
        <time>2023-11-14T08:17:57Z</time>
      </trkpt>
      <trkpt lat="47.04826" lon="-1.09872">
        <ele>103</ele>
        <time>2023-11-14T08:26:52Z</time>
      </trkpt>
      <trkpt lat="47.04929" lon="-1.09786">
        <ele>106</ele>
        <time>2023-11-14T08:29:30Z</time>
      </trkpt>
      <trkpt lat="47.0521" lon="-1.10276">
        <ele>102</ele>
        <time>2023-11-14T08:39:12Z</time>
      </trkpt>
      <trkpt lat="47.04865" lon="-1.10356">
        <ele>99</ele>
        <time>2023-11-14T08:46:59Z</time>
      </trkpt>
      <trkpt lat="47.04782" lon="-1.10435">
        <ele>97</ele>
        <time>2023-11-14T08:49:11Z</time>
      </trkpt>
      <trkpt lat="47.04703" lon="-1.10767">
        <ele>96</ele>
        <time>2023-11-14T08:54:30Z</time>
      </trkpt>
      <trkpt lat="47.04682" lon="-1.1107">
        <ele>97</ele>
        <time>2023-11-14T08:59:07Z</time>
      </trkpt>
      <trkpt lat="47.04542" lon="-1.10992">
        <ele>90</ele>
        <time>2023-11-14T09:02:27Z</time>
      </trkpt>
      <trkpt lat="47.04365" lon="-1.11264">
        <ele>88</ele>
        <time>2023-11-14T09:08:09Z</time>
      </trkpt>
      <trkpt lat="47.04278" lon="-1.11252">
        <ele>89</ele>
        <time>2023-11-14T09:10:06Z</time>
      </trkpt>
      <trkpt lat="47.04212" lon="-1.11428">
        <ele>87</ele>
        <time>2023-11-14T09:13:08Z</time>
      </trkpt>
      <trkpt lat="47.04145" lon="-1.11519">
        <ele>85</ele>
        <time>2023-11-14T09:15:10Z</time>
      </trkpt>
      <trkpt lat="47.04121" lon="-1.11659">
        <ele>82</ele>
        <time>2023-11-14T09:17:21Z</time>
      </trkpt>
      <trkpt lat="47.04009" lon="-1.11604">
        <ele>85</ele>
        <time>2023-11-14T09:19:59Z</time>
      </trkpt>
      <trkpt lat="47.03926" lon="-1.11756">
        <ele>88</ele>
        <time>2023-11-14T09:22:56Z</time>
      </trkpt>
      <trkpt lat="47.03816" lon="-1.1174">
        <ele>99</ele>
        <time>2023-11-14T09:25:24Z</time>
      </trkpt>
      <trkpt lat="47.03809" lon="-1.11717">
        <ele>100</ele>
        <time>2023-11-14T09:25:47Z</time>
      </trkpt>
      <trkpt lat="47.03745" lon="-1.11457">
        <ele>104</ele>
        <time>2023-11-14T09:29:58Z</time>
      </trkpt>
      <trkpt lat="47.03808" lon="-1.11309">
        <ele>106</ele>
        <time>2023-11-14T09:32:37Z</time>
      </trkpt>
    </trkseg>
  </trk>
</gpx>